Time;durP1;ratioP1;P1;durP2;ratioP2;P2;SDS_P1;SDS_P2;PMS_P1;PMS_P2;Temp;Humidity;BMP_temperature;BMP_pressure;BME280_temperature;BME280_humidity;BME280_pressure;Samples;Min_cycle;Max_cycle;Signal;HPM_P1;HPM_P2
2022/12/21 00:01:39;;;;;;;61.72;32.35;;;;;;;-1.33;78.95;100730.44;5094359;28;20502;-74
2022/12/21 00:04:06;;;;;;;62.05;32.80;;;;;;;-1.21;78.52;100726.91;5093947;28;20024;-72
2022/12/21 00:06:34;;;;;;;68.72;34.20;;;;;;;-1.19;78.83;100731.13;5093306;28;20016;-73
2022/12/21 00:09:01;;;;;;;68.72;34.92;;;;;;;-1.33;77.64;100729.56;5093955;28;20038;-73
2022/12/21 00:11:28;;;;;;;64.07;34.95;;;;;;;-1.23;78.23;100735.41;5089486;28;20024;-73
2022/12/21 00:13:57;;;;;;;56.85;29.50;;;;;;;-1.14;78.33;100728.56;5078603;28;20381;-73
2022/12/21 00:16:24;;;;;;;51.97;28.13;;;;;;;-1.19;77.88;100727.56;5073752;28;20132;-73
2022/12/21 00:18:50;;;;;;;56.50;30.95;;;;;;;-1.48;77.43;100721.69;5073700;28;20024;-74
2022/12/21 00:21:21;;;;;;;53.92;29.08;;;;;;;-2.13;79.15;100715.38;5073707;28;20027;-73
2022/12/21 00:23:49;;;;;;;49.95;27.88;;;;;;;-2.37;80.55;100717.00;5073473;28;20024;-73
2022/12/21 00:26:18;;;;;;;55.47;28.25;;;;;;;-2.45;81.69;100718.91;5073699;28;20024;-74
2022/12/21 00:28:43;;;;;;;54.55;29.13;;;;;;;-2.18;82.02;100718.78;5081912;28;20035;-74
2022/12/21 00:31:14;;;;;;;56.95;29.25;;;;;;;-2.21;81.17;100730.19;5092262;28;20038;-74
2022/12/21 00:33:41;;;;;;;52.58;27.35;;;;;;;-1.94;81.09;100712.75;5076292;28;20485;-74
2022/12/21 00:36:09;;;;;;;53.20;27.80;;;;;;;-1.78;80.58;100712.19;5073022;28;20024;-73
2022/12/21 00:38:35;;;;;;;54.33;26.08;;;;;;;-2.12;79.82;100706.94;5073199;28;20029;-74
2022/12/21 00:41:05;;;;;;;56.40;28.85;;;;;;;-2.12;80.18;100706.94;5072007;28;20024;-73
2022/12/21 00:43:32;;;;;;;58.00;28.73;;;;;;;-2.17;79.81;100697.69;5092033;28;20032;-73
2022/12/21 00:45:58;;;;;;;58.72;29.33;;;;;;;-2.45;81.21;100699.72;5092094;28;20093;-74
2022/12/21 00:48:28;;;;;;;60.53;28.75;;;;;;;-2.28;81.00;100696.50;5088977;28;20032;-74
2022/12/21 00:50:53;;;;;;;59.75;29.55;;;;;;;-2.74;81.86;100698.38;5087774;28;20020;-73
2022/12/21 00:53:19;;;;;;;52.03;28.63;;;;;;;-2.83;82.73;100686.81;5091771;28;20031;-73
2022/12/21 00:56:11;;;;;;;60.83;29.58;;;;;;;-3.07;84.11;100688.38;5092130;28;20035;-74
2022/12/21 00:58:38;;;;;;;57.75;29.88;;;;;;;-3.16;84.60;100701.44;5091189;28;20027;-74
2022/12/21 01:01:06;;;;;;;55.90;30.63;;;;;;;-3.33;85.90;100701.91;5091866;28;20081;-74
2022/12/21 01:03:32;;;;;;;61.50;30.67;;;;;;;-3.26;86.48;100691.78;5091640;28;20379;-73
2022/12/21 01:05:57;;;;;;;57.03;30.08;;;;;;;-3.09;85.93;100685.84;5091199;28;20028;-73
2022/12/21 01:08:24;;;;;;;60.80;29.70;;;;;;;-3.44;86.45;100691.59;5091566;28;20081;-73
2022/12/21 01:10:56;;;;;;;52.70;28.08;;;;;;;-3.78;87.88;100686.16;5092727;28;20020;-72
2022/12/21 01:13:21;;;;;;;60.42;28.75;;;;;;;-3.78;88.43;100682.56;5090018;28;20028;-73
2022/12/21 01:15:47;;;;;;;51.83;27.23;;;;;;;-3.82;88.55;100672.03;5078741;28;20053;-72
2022/12/21 01:18:14;;;;;;;54.25;28.38;;;;;;;-3.60;88.23;100668.25;5090902;28;20085;-73
2022/12/21 01:20:51;;;;;;;57.47;27.23;;;;;;;-3.44;87.21;100665.09;5087608;28;20099;-73
2022/12/21 01:23:18;;;;;;;57.00;29.83;;;;;;;-3.50;87.30;100667.81;5084266;28;20402;-73
2022/12/21 01:25:45;;;;;;;53.90;26.73;;;;;;;-3.69;88.01;100670.34;5092792;28;20051;-74
2022/12/21 01:28:11;;;;;;;59.75;29.38;;;;;;;-3.85;89.06;100669.72;5081527;28;20035;-73
2022/12/21 01:30:38;;;;;;;55.38;28.90;;;;;;;-3.74;89.33;100664.66;5081932;28;20024;-73
2022/12/21 01:33:04;;;;;;;49.45;25.80;;;;;;;-3.67;88.62;100657.31;5078664;28;20092;-74
2022/12/21 01:35:30;;;;;;;61.10;28.27;;;;;;;-3.77;88.47;100657.75;5091699;28;20035;-73
2022/12/21 01:37:55;;;;;;;54.30;26.48;;;;;;;-3.73;89.57;100655.44;5091813;28;20421;-73
2022/12/21 01:40:21;;;;;;;56.47;26.95;;;;;;;-3.74;89.02;100649.09;5091306;28;20123;-73
2022/12/21 01:42:47;;;;;;;48.50;27.27;;;;;;;-3.85;89.71;100653.34;5084411;28;20380;-74
2022/12/21 01:45:28;;;;;;;55.10;27.15;;;;;;;-3.63;89.79;100642.16;5072023;28;20610;-73
2022/12/21 01:48:03;;;;;;;53.08;28.17;;;;;;;-3.46;88.21;100647.19;5083193;28;20103;-74
2022/12/21 01:50:45;;;;;;;48.83;26.23;;;;;;;-3.31;87.56;100644.22;5071997;28;20085;-74
2022/12/21 01:53:23;;;;;;;50.40;26.88;;;;;;;-3.45;87.68;100646.13;5078043;28;20031;-74
2022/12/21 01:55:53;;;;;;;65.55;30.48;;;;;;;-3.73;88.23;100647.22;5074579;28;20123;-74
2022/12/21 01:58:22;;;;;;;59.40;27.33;;;;;;;-3.80;88.73;100641.75;5072140;28;20368;-73
2022/12/21 02:00:48;;;;;;;56.50;27.98;;;;;;;-3.48;88.44;100646.56;5071777;28;20059;-73
2022/12/21 02:03:19;;;;;;;47.30;28.67;;;;;;;-3.36;87.45;100635.81;5083928;28;20024;-74
2022/12/21 02:05:57;;;;;;;55.00;30.33;;;;;;;-3.41;86.82;100631.81;5092258;28;20106;-74
2022/12/21 02:08:22;;;;;;;51.78;24.75;;;;;;;-3.54;86.59;100629.94;5090330;28;20031;-73
2022/12/21 02:10:49;;;;;;;52.95;25.50;;;;;;;-3.61;86.59;100631.00;5087501;28;20470;-74
2022/12/21 02:13:15;;;;;;;49.95;25.05;;;;;;;-3.44;86.73;100624.06;5091003;28;20106;-74
2022/12/21 02:15:50;;;;;;;62.72;30.40;;;;;;;-3.23;86.54;100624.00;5091788;28;20485;-74
2022/12/21 02:18:35;;;;;;;54.80;28.83;;;;;;;-2.97;85.95;100623.91;5071773;28;20063;-74
2022/12/21 02:21:21;;;;;;;54.67;28.88;;;;;;;-2.81;84.69;100627.19;5084483;28;20418;-74
2022/12/21 02:23:58;;;;;;;72.60;34.35;;;;;;;-2.85;83.68;100618.56;5082341;28;20043;-74
2022/12/21 02:26:42;;;;;;;104.68;47.47;;;;;;;-3.28;83.63;100622.72;5091572;28;20032;-74
2022/12/21 02:29:30;;;;;;;109.28;53.45;;;;;;;-3.01;83.58;100625.41;5086917;28;20043;-73
2022/12/21 02:32:01;;;;;;;97.22;43.40;;;;;;;-3.12;83.21;100612.38;5078408;28;20031;-73
2022/12/21 02:34:35;;;;;;;75.75;36.15;;;;;;;-3.29;84.18;100610.09;5089826;28;20453;-73
2022/12/21 02:37:13;;;;;;;67.32;35.45;;;;;;;-3.31;84.60;100605.91;5091791;28;20055;-74
2022/12/21 02:40:17;;;;;;;58.47;30.77;;;;;;;-3.51;84.58;100612.25;5091469;28;20478;-74
2022/12/21 02:45:45;;;;;;;56.22;26.52;;;;;;;-3.48;85.55;100600.06;5079520;28;20127;-74
2022/12/21 02:48:19;;;;;;;52.58;26.13;;;;;;;-3.30;85.13;100597.47;5070430;28;20028;-74
2022/12/21 02:50:51;;;;;;;51.55;25.75;;;;;;;-3.20;84.78;100597.00;5071463;28;20052;-74
2022/12/21 02:53:22;;;;;;;46.30;25.48;;;;;;;-2.98;85.08;100594.84;5072823;28;20158;-73
2022/12/21 02:55:47;;;;;;;47.33;25.80;;;;;;;-3.10;83.38;100588.38;5077982;28;20031;-74
2022/12/21 02:58:17;;;;;;;47.05;26.23;;;;;;;-3.48;84.08;100584.47;5084534;28;20033;-73
2022/12/21 03:00:55;;;;;;;;;;;;;;;-3.43;84.15;100583.84;5080123;28;20031;-74
2022/12/21 03:06:10;;;;;;;55.72;28.02;;;;;;;-3.06;83.73;100586.03;5095544;28;20055;-73
2022/12/21 03:08:55;;;;;;;60.95;30.10;;;;;;;-2.97;82.80;100579.22;5095224;28;20023;-74
2022/12/21 03:11:29;;;;;;;66.38;31.83;;;;;;;-2.91;83.27;100566.56;5078600;28;20115;-74
2022/12/21 03:14:08;;;;;;;60.92;30.02;;;;;;;-2.83;83.25;100564.44;5088664;28;20107;-74
2022/12/21 03:16:49;;;;;;;59.97;29.70;;;;;;;-2.84;82.38;100557.25;5094965;28;20050;-74
2022/12/21 03:19:18;;;;;;;52.42;27.30;;;;;;;-2.93;82.06;100560.47;5093756;28;20047;-74
2022/12/21 03:21:56;;;;;;;58.92;27.33;;;;;;;-2.77;82.09;100554.50;5094502;28;20024;-73
2022/12/21 03:24:47;;;;;;;52.78;28.02;;;;;;;-2.75;81.82;100552.38;5074560;28;20513;-74
2022/12/21 03:27:27;;;;;;;48.88;25.83;;;;;;;-2.58;83.02;100555.44;5079284;28;20020;-73
2022/12/21 03:29:59;;;;;;;51.50;27.40;;;;;;;-2.45;83.23;100559.97;5082616;28;20055;-73
2022/12/21 03:32:40;;;;;;;56.90;26.55;;;;;;;-2.34;83.45;100557.59;5073334;28;20031;-73
2022/12/21 03:35:17;;;;;;;51.83;28.23;;;;;;;-2.23;82.09;100559.59;5074607;28;20016;-73
2022/12/21 03:37:47;;;;;;;63.10;28.42;;;;;;;-2.14;81.67;100552.78;5073564;28;20031;-74
2022/12/21 03:40:18;;;;;;;55.38;28.35;;;;;;;-2.14;81.02;100555.53;5074752;28;20086;-74
2022/12/21 03:42:50;;;;;;;53.83;28.20;;;;;;;-2.14;81.06;100557.41;5086868;28;20481;-75
2022/12/21 03:45:20;;;;;;;53.60;28.05;;;;;;;-2.04;80.58;100554.19;5093316;28;20139;-74
2022/12/21 03:48:09;;;;;;;51.65;28.60;;;;;;;-1.99;80.81;100551.59;5094171;28;20019;-74
2022/12/21 03:50:42;;;;;;;58.42;30.27;;;;;;;-2.10;79.92;100547.69;5094184;28;20117;-74
2022/12/21 03:53:19;;;;;;;69.20;32.03;;;;;;;-2.18;78.64;100547.97;5094554;28;20020;-74
2022/12/21 03:55:48;;;;;;;97.32;41.70;;;;;;;-2.61;78.53;100549.56;5089120;28;20463;-74
2022/12/21 03:58:15;;;;;;;134.63;52.40;;;;;;;-2.60;80.17;100545.75;5085008;28;20025;-74
2022/12/21 04:00:51;;;;;;;144.35;53.38;;;;;;;-2.84;80.21;100554.50;5074163;28;20024;-74
2022/12/21 04:03:31;;;;;;;114.10;43.08;;;;;;;-2.70;81.81;100549.81;5086061;28;20020;-74
2022/12/21 04:05:56;;;;;;;;;;;;;;;-2.57;81.66;100550.78;5093382;28;20127;-73
2022/12/21 04:08:24;;;;;;;55.95;28.88;;;;;;;-2.57;80.59;100551.63;5092768;28;20003;-74
2022/12/21 04:10:49;;;;;;;56.97;29.08;;;;;;;-2.42;80.91;100551.28;5085209;28;20028;-73
2022/12/21 04:13:15;;;;;;;51.70;26.25;;;;;;;-2.32;80.70;100542.59;5091784;28;20032;-74
2022/12/21 04:21:08;;;;;;;41.28;23.15;;;;;;;-3.55;82.96;100548.94;5094199;28;20107;-72
2022/12/21 04:29:01;;;;;;;45.47;23.80;;;;;;;-2.92;82.89;100537.50;5093668;28;20517;-73
2022/12/21 04:31:26;;;;;;;69.82;32.85;;;;;;;-2.71;82.90;100537.19;5093645;28;20056;-74
2022/12/21 04:33:52;;;;;;;83.25;38.97;;;;;;;-2.66;81.90;100536.50;5076661;28;20387;-74
2022/12/21 04:39:01;;;;;;;107.13;52.45;;;;;;;-2.76;80.50;100527.94;5076961;28;20031;-74
2022/12/21 04:41:27;;;;;;;104.03;48.58;;;;;;;-2.72;80.58;100532.75;5080068;28;20430;-74
2022/12/21 04:43:52;;;;;;;104.10;50.92;;;;;;;-2.55;80.63;100521.25;5071875;28;20025;-73
2022/12/21 04:46:18;;;;;;;106.22;49.28;;;;;;;-2.96;79.92;100532.47;5090900;28;20031;-74
2022/12/21 04:48:44;;;;;;;83.47;45.05;;;;;;;-2.93;80.40;100530.34;5093532;28;20020;-74
2022/12/21 04:51:17;;;;;;;66.10;34.78;;;;;;;-3.21;81.32;100528.81;5080902;28;20059;-74
2022/12/21 04:53:43;;;;;;;64.88;28.08;;;;;;;-3.07;81.36;100529.59;5090285;28;20052;-74
2022/12/21 04:56:10;;;;;;;56.70;27.88;;;;;;;-2.80;81.35;100529.44;5073394;28;20116;-74
2022/12/21 04:58:36;;;;;;;74.90;38.58;;;;;;;-2.80;82.52;100519.31;5087790;28;20025;-75
2022/12/21 05:01:02;;;;;;;82.22;43.22;;;;;;;-2.61;81.55;100525.72;5073054;28;20035;-74
2022/12/21 05:03:28;;;;;;;82.35;40.78;;;;;;;-2.79;82.30;100518.25;5084485;28;20395;-73
2022/12/21 05:05:53;;;;;;;86.20;41.15;;;;;;;-2.87;82.48;100522.09;5090875;28;20035;-74
2022/12/21 05:08:19;;;;;;;73.90;37.78;;;;;;;-2.99;83.91;100513.75;5091775;28;20104;-73
2022/12/21 05:10:44;;;;;;;74.13;38.08;;;;;;;-2.79;83.54;100523.72;5079825;28;20028;-74
2022/12/21 05:13:10;;;;;;;67.82;36.00;;;;;;;-2.80;82.81;100510.28;5091709;28;20104;-73
2022/12/21 05:15:38;;;;;;;74.90;35.35;;;;;;;-2.73;82.72;100513.78;5083605;28;20055;-74
2022/12/21 05:18:04;;;;;;;59.58;28.55;;;;;;;-2.78;83.13;100495.28;5089799;28;20548;-73
2022/12/21 05:20:30;;;;;;;62.00;30.33;;;;;;;-2.88;82.70;100501.25;5084876;28;20027;-73
2022/12/21 05:22:55;;;;;;;61.58;31.63;;;;;;;-2.71;81.60;100493.34;5083395;28;20105;-73
2022/12/21 05:25:21;;;;;;;61.90;29.65;;;;;;;-2.72;81.42;100499.88;5071066;28;20033;-73
2022/12/21 05:27:46;;;;;;;71.13;33.72;;;;;;;-2.66;80.82;100494.56;5072547;28;20422;-74
2022/12/21 05:30:12;;;;;;;65.95;33.88;;;;;;;-2.58;80.56;100494.31;5071271;28;20545;-74
2022/12/21 05:32:38;;;;;;;84.95;38.20;;;;;;;-2.65;80.39;100494.38;5072458;28;20418;-72
2022/12/21 05:35:04;;;;;;;85.63;43.70;;;;;;;-2.61;80.51;100489.28;5075609;28;20501;-74
2022/12/21 05:37:30;;;;;;;100.93;43.03;;;;;;;-2.59;80.33;100490.75;5080721;28;20444;-74
2022/12/21 05:39:56;;;;;;;131.52;52.45;;;;;;;-2.54;80.01;100490.91;5076078;28;20387;-70
2022/12/21 05:42:21;;;;;;;127.63;57.00;;;;;;;-2.58;80.13;100486.09;5086980;28;20024;-74
2022/12/21 05:44:47;;;;;;;121.38;55.50;;;;;;;-2.58;80.03;100486.09;5071864;28;20024;-75
2022/12/21 05:47:12;;;;;;;129.00;52.30;;;;;;;-3.00;79.21;100476.50;5071596;28;20032;-74
2022/12/21 05:49:37;;;;;;;130.63;67.55;;;;;;;-3.15;79.88;100482.25;5074168;28;20031;-71
2022/12/21 05:52:03;;;;;;;139.73;68.63;;;;;;;-3.06;80.77;100485.56;5086952;28;20028;-75
2022/12/21 05:54:29;;;;;;;129.35;59.78;;;;;;;-2.86;81.70;100482.69;5085886;28;20074;-71
2022/12/21 05:56:54;;;;;;;109.53;50.47;;;;;;;-3.06;81.14;100488.31;5087848;28;20083;-72
2022/12/21 05:59:20;;;;;;;87.70;47.45;;;;;;;-3.41;81.10;100480.47;5087857;28;20032;-72
2022/12/21 06:01:45;;;;;;;130.73;58.85;;;;;;;-3.10;81.69;100485.16;5088209;28;20027;-72
2022/12/21 06:04:11;;;;;;;174.60;69.57;;;;;;;-2.98;81.50;100488.06;5089089;28;20047;-70
2022/12/21 06:06:37;;;;;;;156.25;67.80;;;;;;;-2.84;81.23;100485.22;5085592;28;20024;-72
2022/12/21 06:09:03;;;;;;;185.85;79.15;;;;;;;-2.73;81.03;100486.41;5081033;28;20490;-72
2022/12/21 06:11:29;;;;;;;127.28;53.35;;;;;;;-2.71;81.01;100485.13;5076600;28;20028;-72
2022/12/21 06:13:54;;;;;;;142.70;54.63;;;;;;;-2.89;80.62;100476.84;5084580;28;20025;-70
2022/12/21 06:16:22;;;;;;;165.20;57.00;;;;;;;-2.75;80.85;100486.66;5067734;28;20052;-73
2022/12/21 06:18:48;;;;;;;189.10;72.57;;;;;;;-2.62;81.06;100487.59;5070797;28;20028;-72
2022/12/21 06:21:15;;;;;;;353.58;127.78;;;;;;;-2.55;80.83;100489.22;5085089;28;20016;-73
2022/12/21 06:23:40;;;;;;;448.73;182.70;;;;;;;-2.45;80.64;100491.47;5087826;28;20104;-73
2022/12/21 06:26:07;;;;;;;379.17;139.18;;;;;;;-2.45;80.51;100485.16;5087801;28;20119;-72
2022/12/21 06:28:35;;;;;;;131.10;57.47;;;;;;;-2.42;79.66;100477.31;5089084;28;20498;-72
2022/12/21 06:31:12;;;;;;;149.50;52.97;;;;;;;-2.71;79.10;100485.13;5080621;28;20099;-72
2022/12/21 06:33:38;;;;;;;159.73;65.72;;;;;;;-2.81;80.38;100476.56;5083340;28;20406;-72
2022/12/21 06:36:06;;;;;;;204.93;73.45;;;;;;;-2.85;81.11;100480.81;5089156;28;20028;-73
2022/12/21 06:38:32;;;;;;;168.23;63.45;;;;;;;-2.85;81.64;100487.13;5082804;28;20028;-72
2022/12/21 06:41:00;;;;;;;93.55;42.42;;;;;;;-2.84;81.53;100485.22;5084959;28;20067;-72
2022/12/21 06:43:27;;;;;;;102.75;47.47;;;;;;;-2.60;81.85;100490.97;5092359;28;20023;-72
2022/12/21 06:45:58;;;;;;;100.93;44.55;;;;;;;-2.17;81.68;100495.66;5076427;28;20024;-72
2022/12/21 06:48:26;;;;;;;87.88;42.45;;;;;;;-2.48;81.13;100499.28;5093271;28;20510;-72
2022/12/21 06:51:00;;;;;;;119.35;51.65;;;;;;;-2.61;82.14;100484.63;5090950;28;20519;-70
2022/12/21 06:53:28;;;;;;;135.75;62.55;;;;;;;-2.73;82.21;100486.41;5081756;28;20024;-73
2022/12/21 06:56:08;;;;;;;110.00;52.53;;;;;;;-2.62;82.75;100490.34;5083420;28;20028;-71
2022/12/21 06:58:34;;;;;;;;;;;;;;;-2.57;83.83;100483.13;5086002;28;20085;-71
2022/12/21 07:01:04;;;;;;;91.05;44.55;;;;;;;-2.51;84.70;100480.56;5091677;28;20385;-73
2022/12/21 07:03:30;;;;;;;88.90;42.00;;;;;;;-2.31;83.47;100477.63;5092999;28;20189;-73
2022/12/21 07:05:55;;;;;;;83.93;38.17;;;;;;;-2.50;84.34;100480.34;5090374;28;20486;-73
2022/12/21 07:08:21;;;;;;;86.57;39.13;;;;;;;-2.48;84.87;100480.97;5091458;28;20079;-72
2022/12/21 07:10:47;;;;;;;67.45;33.78;;;;;;;-2.39;85.84;100467.81;5088323;28;20035;-73
2022/12/21 07:13:12;;;;;;;65.45;31.27;;;;;;;-2.42;86.46;100474.56;5089315;28;20032;-73
2022/12/21 07:15:38;;;;;;;48.28;26.92;;;;;;;-2.50;85.91;100457.56;5087722;28;20040;-71
2022/12/21 07:18:03;;;;;;;64.30;29.52;;;;;;;-2.75;87.68;100461.16;5085408;28;20023;-73
2022/12/21 07:20:29;;;;;;;62.38;31.38;;;;;;;-3.01;88.88;100458.38;5089651;28;20043;-72
2022/12/21 07:22:54;;;;;;;75.38;33.08;;;;;;;-2.84;89.25;100452.38;5092408;28;20024;-72
2022/12/21 07:25:20;;;;;;;58.08;28.90;;;;;;;-2.67;89.44;100458.13;5091250;28;20031;-73
2022/12/21 07:27:45;;;;;;;50.60;26.50;;;;;;;-2.51;89.04;100450.41;5086292;28;20034;-75
2022/12/21 07:30:11;;;;;;;62.50;33.03;;;;;;;-2.46;89.41;100447.88;5085722;28;20119;-74
2022/12/21 07:32:37;;;;;;;56.83;30.15;;;;;;;-2.31;88.97;100452.97;5071545;28;20478;-71
2022/12/21 07:35:04;;;;;;;56.05;30.20;;;;;;;-2.17;87.78;100443.59;5072905;28;20055;-74
2022/12/21 07:37:29;;;;;;;41.90;23.67;;;;;;;-2.12;88.04;100443.72;5071525;28;20399;-73
2022/12/21 07:39:55;;;;;;;52.78;27.60;;;;;;;-2.04;88.25;100450.81;5079103;28;20093;-73
2022/12/21 07:42:20;;;;;;;65.43;30.33;;;;;;;-1.95;88.98;100453.28;5088109;28;20093;-71
2022/12/21 07:44:45;;;;;;;65.72;29.88;;;;;;;-1.65;88.17;100441.53;5090217;28;20042;-73
2022/12/21 07:47:11;;;;;;;54.63;27.08;;;;;;;-2.09;88.14;100447.94;5090048;28;20089;-71
2022/12/21 07:49:37;;;;;;;90.63;33.47;;;;;;;-1.96;88.89;100444.19;5077566;28;20031;-75
2022/12/21 07:52:02;;;;;;;69.15;30.27;;;;;;;-1.79;88.42;100429.88;5070811;28;20035;-74
2022/12/21 07:54:28;;;;;;;81.75;35.33;;;;;;;-1.73;88.72;100439.94;5076637;28;20028;-69
2022/12/21 07:56:53;;;;;;;58.58;25.92;;;;;;;-1.72;87.86;100438.84;5086835;28;20024;-69
2022/12/21 07:59:19;;;;;;;61.13;28.27;;;;;;;-1.62;87.13;100439.16;5085499;28;20024;-70
2022/12/21 08:01:44;;;;;;;47.05;22.65;;;;;;;-1.51;86.56;100433.97;5080888;28;20029;-69
2022/12/21 08:04:10;;;;;;;43.33;26.10;;;;;;;-1.49;85.81;100437.31;5084685;28;20078;-67
2022/12/21 08:06:35;;;;;;;61.08;26.60;;;;;;;-1.15;85.18;100427.56;5082118;28;20571;-70
2022/12/21 08:09:04;;;;;;;59.97;25.83;;;;;;;-0.77;81.71;100436.50;5086516;28;20543;-68
2022/12/21 08:11:30;;;;;;;54.33;26.95;;;;;;;-1.17;81.89;100429.69;5076664;28;20403;-69
2022/12/21 08:13:56;;;;;;;76.20;36.05;;;;;;;-0.90;83.21;100431.22;5071449;28;20025;-70
2022/12/21 08:16:22;;;;;;;63.67;31.98;;;;;;;-0.83;82.95;100431.97;5089047;28;20155;-70
2022/12/21 08:18:48;;;;;;;56.30;30.08;;;;;;;-0.49;80.55;100432.22;5088248;28;20111;-70
2022/12/21 08:21:15;;;;;;;54.00;27.50;;;;;;;-0.35;79.65;100429.28;5083633;28;20532;-69
2022/12/21 08:23:41;;;;;;;50.45;27.70;;;;;;;-0.43;80.66;100438.69;5079916;28;20062;-70
2022/12/21 08:26:10;;;;;;;49.78;25.77;;;;;;;-0.10;78.71;100422.69;5069303;28;20546;-69
2022/12/21 08:28:35;;;;;;;51.72;27.27;;;;;;;0.25;77.71;100417.13;5083495;28;20020;-71
2022/12/21 08:31:15;;;;;;;43.67;24.35;;;;;;;-0.52;78.95;100420.88;5075178;28;20485;-70
2022/12/21 08:33:42;;;;;;;50.13;27.90;;;;;;;-0.08;79.56;100413.09;5076540;28;20024;-71
2022/12/21 08:36:09;;;;;;;43.10;22.50;;;;;;;-0.06;77.77;100402.72;5080600;28;20029;-72
2022/12/21 08:38:35;;;;;;;45.17;22.65;;;;;;;0.28;77.44;100407.53;5070273;28;20016;-69
2022/12/21 08:41:01;;;;;;;37.42;20.27;;;;;;;0.55;75.94;100409.72;5070053;28;20036;-70
2022/12/21 08:43:27;;;;;;;41.40;20.63;;;;;;;0.30;75.93;100399.88;5079341;28;20028;-69
2022/12/21 08:45:52;;;;;;;31.35;18.55;;;;;;;0.59;74.28;100397.13;5090365;28;20027;-72
2022/12/21 08:48:18;;;;;;;33.33;18.55;;;;;;;1.11;73.55;100390.63;5087735;28;20020;-74
2022/12/21 08:50:50;;;;;;;42.25;20.55;;;;;;;1.02;71.29;100383.03;5090484;28;20022;-73
2022/12/21 08:53:16;;;;;;;36.17;19.33;;;;;;;0.94;72.38;100382.34;5073988;28;20019;-73
2022/12/21 08:55:41;;;;;;;36.55;21.10;;;;;;;1.55;71.79;100380.88;5077982;28;20096;-69
2022/12/21 08:58:07;;;;;;;41.83;26.25;;;;;;;1.79;71.57;100378.72;5075295;28;20020;-70
2022/12/21 09:00:32;;;;;;;39.22;23.52;;;;;;;1.62;69.83;100377.94;5085962;28;20431;-72
2022/12/21 09:02:58;;;;;;;44.13;23.23;;;;;;;1.78;69.01;100368.78;5086693;28;20036;-73
2022/12/21 09:05:23;;;;;;;35.40;20.85;;;;;;;1.95;69.57;100365.16;5088115;28;20105;-73
2022/12/21 09:07:49;;;;;;;35.67;21.00;;;;;;;2.21;67.87;100359.97;5088516;28;20124;-70
2022/12/21 09:10:14;;;;;;;37.70;21.88;;;;;;;1.84;68.33;100366.94;5084763;28;20046;-71
2022/12/21 09:12:40;;;;;;;44.40;22.25;;;;;;;2.35;67.27;100355.72;5078409;28;20082;-70
2022/12/21 09:15:06;;;;;;;43.85;24.02;;;;;;;1.94;67.20;100355.22;5087645;28;20044;-72
2022/12/21 09:17:31;;;;;;;44.88;22.50;;;;;;;1.78;68.86;100338.44;5087347;28;20067;-72
2022/12/21 09:19:57;;;;;;;45.72;24.17;;;;;;;1.80;68.16;100341.78;5070664;28;20048;-72
2022/12/21 09:22:25;;;;;;;42.15;23.50;;;;;;;2.04;69.70;100347.06;5084261;28;20089;-72
2022/12/21 09:24:51;;;;;;;47.05;21.73;;;;;;;2.20;67.59;100347.25;5076393;28;20035;-73
2022/12/21 09:27:16;;;;;;;39.78;22.30;;;;;;;2.46;67.44;100340.09;5080985;28;20029;-72
2022/12/21 09:29:42;;;;;;;37.75;20.92;;;;;;;2.75;66.62;100341.75;5067373;28;20032;-72
2022/12/21 09:32:07;;;;;;;39.15;22.65;;;;;;;2.86;66.74;100337.19;5076462;28;20417;-71
2022/12/21 09:34:33;;;;;;;48.78;24.08;;;;;;;3.04;65.73;100333.19;5084822;28;20422;-68
2022/12/21 09:36:59;;;;;;;396.33;140.23;;;;;;;3.14;65.96;100326.91;5083758;28;20020;-70
2022/12/21 09:39:24;;;;;;;88.43;37.97;;;;;;;3.38;65.03;100321.84;5090467;28;20141;-71
2022/12/21 09:42:05;;;;;;;47.20;25.90;;;;;;;3.31;65.92;100315.72;5083609;28;20112;-71
2022/12/21 09:45:07;;;;;;;50.03;25.33;;;;;;;3.42;65.12;100311.06;5078256;28;20024;-70
2022/12/21 09:48:04;;;;;;;120.32;82.25;;;;;;;3.60;64.65;100298.72;5069960;28;20082;-71
2022/12/21 09:50:41;;;;;;;36.30;20.75;;;;;;;3.57;62.60;100302.03;5079666;28;20062;-70
2022/12/21 09:53:32;;;;;;;109.75;75.57;;;;;;;3.62;62.33;100290.97;5082492;28;20450;-69
2022/12/21 09:55:59;;;;;;;41.80;23.63;;;;;;;3.70;59.61;100289.66;5095008;28;20031;-70
2022/12/21 09:58:38;;;;;;;21.67;13.02;;;;;;;3.60;58.45;100294.03;5089044;28;20012;-71
2022/12/21 10:01:22;;;;;;;22.88;13.55;;;;;;;3.86;58.79;100282.25;5083507;28;20020;-72
2022/12/21 10:04:06;;;;;;;29.23;16.33;;;;;;;4.01;58.29;100282.34;5083244;28;20020;-71
2022/12/21 10:07:04;;;;;;;32.30;17.38;;;;;;;4.03;57.85;100271.81;5090454;28;20063;-72
2022/12/21 10:10:00;;;;;;;19.15;13.07;;;;;;;3.25;59.60;100266.97;5078621;28;20553;-73
2022/12/21 10:12:37;;;;;;;22.98;11.80;;;;;;;3.60;59.37;100265.53;5088725;28;20514;-73
2022/12/21 10:15:09;;;;;;;21.27;12.00;;;;;;;3.44;60.62;100268.22;5083281;28;20040;-72
2022/12/21 10:17:50;;;;;;;22.83;13.90;;;;;;;3.71;59.94;100253.41;5082706;28;20088;-73
2022/12/21 10:20:39;;;;;;;24.75;13.65;;;;;;;3.20;61.40;100253.97;5083858;28;20028;-72
2022/12/21 10:23:17;;;;;;;20.08;12.70;;;;;;;3.85;60.66;100252.91;5080683;28;20024;-71
2022/12/21 10:25:56;;;;;;;28.52;20.52;;;;;;;4.29;59.91;100235.88;5082776;28;20051;-71
2022/12/21 10:28:28;;;;;;;22.95;13.30;;;;;;;4.39;57.64;100235.06;5086283;28;20127;-71
2022/12/21 10:31:31;;;;;;;19.40;12.52;;;;;;;4.54;57.17;100202.94;5084486;28;20027;-70
2022/12/21 10:33:58;;;;;;;24.48;14.77;;;;;;;4.50;58.40;100224.84;5070463;28;20463;-74
2022/12/21 10:36:35;;;;;;;25.25;13.77;;;;;;;4.58;59.08;100227.03;5084363;28;20028;-74
2022/12/21 10:39:01;;;;;;;21.60;12.75;;;;;;;4.66;57.58;100211.81;5087376;28;20016;-73
2022/12/21 10:41:33;;;;;;;111.47;44.85;;;;;;;4.88;57.49;100207.91;5088367;28;20024;-74
2022/12/21 10:44:00;;;;;;;67.18;26.52;;;;;;;4.89;56.54;100202.09;5083667;28;20503;-75
2022/12/21 10:46:31;;;;;;;35.55;16.58;;;;;;;5.06;57.05;100198.19;5086009;28;20028;-75
2022/12/21 10:49:20;;;;;;;28.40;16.85;;;;;;;4.73;57.61;100200.47;5089303;28;20027;-72
2022/12/21 10:51:46;;;;;;;26.20;14.98;;;;;;;4.48;59.10;100193.81;5086020;28;20118;-72
2022/12/21 10:54:11;;;;;;;25.05;13.93;;;;;;;4.90;58.00;100178.81;5086608;28;20034;-73
2022/12/21 10:56:46;;;;;;;282.10;112.18;;;;;;;5.20;57.27;100184.56;5086167;28;20119;-72
2022/12/21 10:59:17;;;;;;;38.22;19.08;;;;;;;5.18;57.11;100187.59;5084132;28;20050;-72
2022/12/21 11:01:43;;;;;;;37.22;19.42;;;;;;;5.24;56.47;100180.09;5081021;28;20086;-74
2022/12/21 11:04:26;;;;;;;28.70;15.13;;;;;;;5.17;56.72;100174.03;5081488;28;20486;-73
2022/12/21 11:07:04;;;;;;;42.85;17.30;;;;;;;5.23;55.88;100164.56;5083281;28;20024;-73
2022/12/21 11:09:32;;;;;;;23.85;12.77;;;;;;;5.19;57.24;100171.81;5085232;28;20060;-74
2022/12/21 11:12:14;;;;;;;20.40;13.55;;;;;;;5.14;57.58;100163.53;5085799;28;20483;-74
2022/12/21 11:14:39;;;;;;;25.88;13.48;;;;;;;5.09;57.37;100157.97;5086956;28;20032;-73
2022/12/21 11:17:05;;;;;;;19.67;11.52;;;;;;;4.84;57.05;100143.91;5086244;28;20044;-74
2022/12/21 11:19:34;;;;;;;27.77;13.95;;;;;;;4.71;58.67;100144.47;5086093;28;20032;-72
2022/12/21 11:22:06;;;;;;;20.83;11.17;;;;;;;4.82;58.48;100148.88;5088147;28;20102;-71
2022/12/21 11:24:39;;;;;;;17.40;11.65;;;;;;;4.98;59.05;100129.44;5081702;28;21033;-73
2022/12/21 11:27:22;;;;;;;18.38;10.98;;;;;;;5.01;57.94;100135.28;5085376;28;20016;-72
2022/12/21 11:29:49;;;;;;;19.05;11.90;;;;;;;5.01;57.97;100135.28;5091359;28;20459;-73
2022/12/21 11:32:16;;;;;;;16.17;9.75;;;;;;;4.95;57.67;100144.69;5084987;28;20406;-72
2022/12/21 11:34:55;;;;;;;14.77;9.95;;;;;;;4.90;58.71;100131.66;5086450;28;20036;-73
2022/12/21 11:37:23;;;;;;;15.37;8.57;;;;;;;4.91;57.45;100133.34;5084864;28;20044;-73
2022/12/21 11:39:49;;;;;;;16.88;9.30;;;;;;;5.02;57.28;100125.00;5089590;28;20759;-73
2022/12/21 11:42:21;;;;;;;16.35;9.45;;;;;;;5.10;57.34;100121.66;5086964;28;20020;-73
2022/12/21 11:44:49;;;;;;;14.13;8.73;;;;;;;5.24;55.95;100112.72;5091115;28;20020;-73